sensor_id;sensor_type;location;lat;lon;timestamp;pressure;altitude;pressure_sealevel;temperature;humidity
28008;BME280;15333;50.010;20.020;2022-10-30T00:00:40;99303.09;;;11.08;100.00
28008;BME280;15333;50.010;20.020;2022-10-30T00:04:02;99296.88;;;11.08;100.00
28008;BME280;15333;50.010;20.020;2022-10-30T00:07:03;99307.69;;;10.93;100.00
28008;BME280;15333;50.010;20.020;2022-10-30T00:10:04;99304.44;;;10.88;100.00
28008;BME280;15333;50.010;20.020;2022-10-30T00:13:05;99302.00;;;10.85;100.00
28008;BME280;15333;50.010;20.020;2022-10-30T00:16:07;99301.16;;;10.85;100.00
28008;BME280;15333;50.010;20.020;2022-10-30T00:19:09;99294.84;;;10.86;100.00
28008;BME280;15333;50.010;20.020;2022-10-30T00:22:10;99299.41;;;10.84;100.00
28008;BME280;15333;50.010;20.020;2022-10-30T00:25:11;99295.97;;;10.82;100.00
28008;BME280;15333;50.010;20.020;2022-10-30T00:28:12;99312.47;;;10.76;100.00
28008;BME280;15333;50.010;20.020;2022-10-30T00:31:13;99310.75;;;10.75;100.00
28008;BME280;15333;50.010;20.020;2022-10-30T00:34:14;99312.88;;;10.70;100.00
28008;BME280;15333;50.010;20.020;2022-10-30T00:37:15;99308.06;;;10.62;100.00
28008;BME280;15333;50.010;20.020;2022-10-30T00:40:17;99311.16;;;10.69;100.00
28008;BME280;15333;50.010;20.020;2022-10-30T00:43:36;99302.19;;;10.70;100.00
28008;BME280;15333;50.010;20.020;2022-10-30T00:46:39;99295.34;;;10.66;100.00
28008;BME280;15333;50.010;20.020;2022-10-30T00:53:05;99314.81;;;10.68;100.00
28008;BME280;15333;50.010;20.020;2022-10-30T00:56:10;99314.09;;;10.78;100.00
28008;BME280;15333;50.010;20.020;2022-10-30T00:59:15;99304.78;;;10.84;100.00
28008;BME280;15333;50.010;20.020;2022-10-30T01:02:18;99302.53;;;10.90;100.00
28008;BME280;15333;50.010;20.020;2022-10-30T01:05:22;99294.75;;;11.00;100.00
28008;BME280;15333;50.010;20.020;2022-10-30T01:08:24;99289.25;;;11.02;100.00
28008;BME280;15333;50.010;20.020;2022-10-30T01:11:27;99280.38;;;11.01;100.00
28008;BME280;15333;50.010;20.020;2022-10-30T01:14:28;99276.72;;;11.02;100.00
28008;BME280;15333;50.010;20.020;2022-10-30T01:37:15;99264.66;;;11.58;100.00
28008;BME280;15333;50.010;20.020;2022-10-30T01:40:18;99265.09;;;11.65;100.00
28008;BME280;15333;50.010;20.020;2022-10-30T01:43:21;99261.88;;;11.60;100.00
28008;BME280;15333;50.010;20.020;2022-10-30T01:46:40;99258.25;;;11.48;100.00
28008;BME280;15333;50.010;20.020;2022-10-30T01:49:49;99266.63;;;11.56;100.00
28008;BME280;15333;50.010;20.020;2022-10-30T01:56:26;99259.78;;;11.39;100.00
28008;BME280;15333;50.010;20.020;2022-10-30T02:02:41;99260.84;;;11.37;100.00
28008;BME280;15333;50.010;20.020;2022-10-30T02:05:48;99255.38;;;11.38;100.00
28008;BME280;15333;50.010;20.020;2022-10-30T02:08:54;99273.16;;;11.39;100.00
28008;BME280;15333;50.010;20.020;2022-10-30T02:11:56;99278.94;;;11.46;100.00
28008;BME280;15333;50.010;20.020;2022-10-30T02:14:59;99270.72;;;11.36;100.00
28008;BME280;15333;50.010;20.020;2022-10-30T02:18:01;99265.78;;;11.30;100.00
28008;BME280;15333;50.010;20.020;2022-10-30T02:21:02;99259.13;;;11.23;100.00
28008;BME280;15333;50.010;20.020;2022-10-30T02:24:03;99245.13;;;11.07;100.00
28008;BME280;15333;50.010;20.020;2022-10-30T02:27:04;99254.88;;;11.08;100.00
28008;BME280;15333;50.010;20.020;2022-10-30T02:30:06;99257.25;;;11.00;100.00
28008;BME280;15333;50.010;20.020;2022-10-30T02:33:09;99252.84;;;10.99;100.00
28008;BME280;15333;50.010;20.020;2022-10-30T02:36:10;99259.16;;;10.98;100.00
28008;BME280;15333;50.010;20.020;2022-10-30T02:39:12;99281.88;;;11.05;100.00
28008;BME280;15333;50.010;20.020;2022-10-30T02:42:13;99293.00;;;10.99;100.00
28008;BME280;15333;50.010;20.020;2022-10-30T02:45:15;99288.50;;;10.87;100.00
28008;BME280;15333;50.010;20.020;2022-10-30T02:48:16;99282.25;;;10.74;100.00
28008;BME280;15333;50.010;20.020;2022-10-30T02:51:17;99282.50;;;10.71;100.00
28008;BME280;15333;50.010;20.020;2022-10-30T02:54:18;99281.63;;;10.70;100.00
28008;BME280;15333;50.010;20.020;2022-10-30T02:57:20;99272.63;;;10.58;100.00
28008;BME280;15333;50.010;20.020;2022-10-30T03:00:20;99286.81;;;10.46;100.00
28008;BME280;15333;50.010;20.020;2022-10-30T03:03:22;99287.56;;;10.48;100.00
28008;BME280;15333;50.010;20.020;2022-10-30T03:06:23;99283.09;;;10.49;100.00
28008;BME280;15333;50.010;20.020;2022-10-30T03:09:24;99294.84;;;10.46;100.00
28008;BME280;15333;50.010;20.020;2022-10-30T03:12:25;99293.25;;;10.44;100.00
28008;BME280;15333;50.010;20.020;2022-10-30T03:15:26;99272.13;;;10.39;100.00
28008;BME280;15333;50.010;20.020;2022-10-30T03:18:27;99263.56;;;10.34;100.00
28008;BME280;15333;50.010;20.020;2022-10-30T03:21:28;99260.34;;;10.29;100.00
28008;BME280;15333;50.010;20.020;2022-10-30T03:24:29;99249.06;;;10.24;100.00
28008;BME280;15333;50.010;20.020;2022-10-30T03:27:30;99242.34;;;10.31;100.00
28008;BME280;15333;50.010;20.020;2022-10-30T03:30:31;99243.44;;;10.29;100.00
28008;BME280;15333;50.010;20.020;2022-10-30T03:33:36;99249.22;;;10.35;100.00
28008;BME280;15333;50.010;20.020;2022-10-30T03:36:37;99254.16;;;10.41;100.00
28008;BME280;15333;50.010;20.020;2022-10-30T03:39:38;99262.38;;;10.38;100.00
28008;BME280;15333;50.010;20.020;2022-10-30T03:42:40;99269.78;;;10.35;100.00
28008;BME280;15333;50.010;20.020;2022-10-30T03:45:47;99264.31;;;10.36;100.00
28008;BME280;15333;50.010;20.020;2022-10-30T03:48:48;99272.34;;;10.36;100.00
28008;BME280;15333;50.010;20.020;2022-10-30T03:51:50;99263.56;;;10.34;100.00
28008;BME280;15333;50.010;20.020;2022-10-30T03:54:51;99258.22;;;10.34;100.00
28008;BME280;15333;50.010;20.020;2022-10-30T03:57:54;99249.66;;;10.29;100.00
28008;BME280;15333;50.010;20.020;2022-10-30T04:01:05;99254.56;;;10.35;100.00
28008;BME280;15333;50.010;20.020;2022-10-30T04:04:10;99255.13;;;10.40;100.00
28008;BME280;15333;50.010;20.020;2022-10-30T04:07:11;99253.31;;;10.41;100.00
28008;BME280;15333;50.010;20.020;2022-10-30T04:10:12;99248.38;;;10.35;100.00
28008;BME280;15333;50.010;20.020;2022-10-30T04:13:15;99253.06;;;10.31;100.00
28008;BME280;15333;50.010;20.020;2022-10-30T04:16:22;99249.66;;;10.29;100.00
28008;BME280;15333;50.010;20.020;2022-10-30T04:19:24;99253.78;;;10.20;100.00
28008;BME280;15333;50.010;20.020;2022-10-30T04:22:25;99257.31;;;10.21;100.00
28008;BME280;15333;50.010;20.020;2022-10-30T04:25:26;99257.69;;;10.15;100.00
28008;BME280;15333;50.010;20.020;2022-10-30T04:28:30;99255.41;;;10.09;100.00
28008;BME280;15333;50.010;20.020;2022-10-30T04:31:31;99256.56;;;10.05;100.00
28008;BME280;15333;50.010;20.020;2022-10-30T04:34:32;99258.31;;;10.06;100.00
28008;BME280;15333;50.010;20.020;2022-10-30T04:37:32;99259.25;;;10.05;100.00
28008;BME280;15333;50.010;20.020;2022-10-30T04:40:36;99267.28;;;10.05;100.00
28008;BME280;15333;50.010;20.020;2022-10-30T04:43:39;99261.06;;;10.04;100.00
28008;BME280;15333;50.010;20.020;2022-10-30T04:46:40;99257.19;;;9.96;100.00
28008;BME280;15333;50.010;20.020;2022-10-30T04:49:43;99250.41;;;9.90;100.00
28008;BME280;15333;50.010;20.020;2022-10-30T04:52:45;99246.88;;;9.90;100.00
28008;BME280;15333;50.010;20.020;2022-10-30T04:55:46;99241.53;;;9.90;100.00
28008;BME280;15333;50.010;20.020;2022-10-30T04:58:48;99244.81;;;9.80;100.00
28008;BME280;15333;50.010;20.020;2022-10-30T05:01:49;99255.41;;;9.82;100.00
28008;BME280;15333;50.010;20.020;2022-10-30T05:04:50;99252.63;;;9.83;100.00
28008;BME280;15333;50.010;20.020;2022-10-30T05:07:51;99251.13;;;9.79;100.00
28008;BME280;15333;50.010;20.020;2022-10-30T05:10:52;99252.09;;;9.78;100.00
28008;BME280;15333;50.010;20.020;2022-10-30T05:13:54;99251.72;;;9.70;100.00
28008;BME280;15333;50.010;20.020;2022-10-30T05:16:56;99255.16;;;9.72;100.00
28008;BME280;15333;50.010;20.020;2022-10-30T05:19:56;99255.16;;;9.72;100.00
28008;BME280;15333;50.010;20.020;2022-10-30T05:22:58;99256.53;;;9.65;100.00
28008;BME280;15333;50.010;20.020;2022-10-30T05:26:00;99261.09;;;9.63;100.00
28008;BME280;15333;50.010;20.020;2022-10-30T05:29:02;99261.28;;;9.60;100.00
28008;BME280;15333;50.010;20.020;2022-10-30T05:32:04;99261.28;;;9.60;100.00
28008;BME280;15333;50.010;20.020;2022-10-30T05:35:17;99253.06;;;9.63;100.00
28008;BME280;15333;50.010;20.020;2022-10-30T05:38:18;99254.03;;;9.62;100.00
28008;BME280;15333;50.010;20.020;2022-10-30T05:41:20;99246.78;;;9.64;100.00
28008;BME280;15333;50.010;20.020;2022-10-30T05:44:21;99246.09;;;9.61;100.00
28008;BME280;15333;50.010;20.020;2022-10-30T05:47:22;99234.38;;;9.63;100.00
28008;BME280;15333;50.010;20.020;2022-10-30T05:50:27;99243.16;;;9.65;100.00
28008;BME280;15333;50.010;20.020;2022-10-30T05:53:49;99254.00;;;9.76;100.00
28008;BME280;15333;50.010;20.020;2022-10-30T05:56:50;99266.97;;;9.82;100.00
28008;BME280;15333;50.010;20.020;2022-10-30T05:59:51;99275.75;;;9.85;100.00
28008;BME280;15333;50.010;20.020;2022-10-30T06:03:01;99276.13;;;9.93;100.00
28008;BME280;15333;50.010;20.020;2022-10-30T06:06:05;99277.25;;;9.89;100.00
28008;BME280;15333;50.010;20.020;2022-10-30T06:09:06;99283.00;;;9.82;100.00
28008;BME280;15333;50.010;20.020;2022-10-30T06:12:27;99291.78;;;9.85;100.00
28008;BME280;15333;50.010;20.020;2022-10-30T06:15:53;99277.66;;;9.82;100.00
28008;BME280;15333;50.010;20.020;2022-10-30T06:18:56;99272.13;;;9.86;100.00
28008;BME280;15333;50.010;20.020;2022-10-30T06:21:58;99271.25;;;9.85;100.00
28008;BME280;15333;50.010;20.020;2022-10-30T06:25:08;99275.53;;;9.88;100.00
28008;BME280;15333;50.010;20.020;2022-10-30T06:28:31;99273.44;;;9.93;100.00
28008;BME280;15333;50.010;20.020;2022-10-30T06:31:32;99272.34;;;9.95;100.00
28008;BME280;15333;50.010;20.020;2022-10-30T06:34:34;99276.06;;;10.07;100.00
28008;BME280;15333;50.010;20.020;2022-10-30T06:37:36;99271.06;;;10.15;100.00
28008;BME280;15333;50.010;20.020;2022-10-30T06:40:43;99278.72;;;10.21;100.00
28008;BME280;15333;50.010;20.020;2022-10-30T06:44:03;99269.94;;;10.19;100.00
28008;BME280;15333;50.010;20.020;2022-10-30T06:47:05;99276.41;;;10.29;100.00
28008;BME280;15333;50.010;20.020;2022-10-30T06:50:14;99279.19;;;10.40;100.00
28008;BME280;15333;50.010;20.020;2022-10-30T06:53:15;99277.22;;;10.56;100.00
28008;BME280;15333;50.010;20.020;2022-10-30T06:56:16;99279.91;;;10.56;100.00
28008;BME280;15333;50.010;20.020;2022-10-30T06:59:36;99282.69;;;10.68;100.00
28008;BME280;15333;50.010;20.020;2022-10-30T07:03:10;99282.06;;;10.77;100.00
28008;BME280;15333;50.010;20.020;2022-10-30T07:06:11;99284.84;;;10.88;100.00
28008;BME280;15333;50.010;20.020;2022-10-30T07:09:12;99274.47;;;10.96;100.00
28008;BME280;15333;50.010;20.020;2022-10-30T07:12:13;99282.72;;;11.06;100.00
28008;BME280;15333;50.010;20.020;2022-10-30T07:15:53;99276.50;;;11.30;100.00
28008;BME280;15333;50.010;20.020;2022-10-30T07:18:58;99280.13;;;11.55;100.00
28008;BME280;15333;50.010;20.020;2022-10-30T07:22:00;99277.50;;;11.66;100.00
28008;BME280;15333;50.010;20.020;2022-10-30T07:25:03;99268.78;;;12.00;100.00
28008;BME280;15333;50.010;20.020;2022-10-30T07:28:23;99275.91;;;12.12;100.00
28008;BME280;15333;50.010;20.020;2022-10-30T07:31:49;99272.13;;;11.91;100.00
28008;BME280;15333;50.010;20.020;2022-10-30T07:35:07;99270.75;;;12.09;100.00
28008;BME280;15333;50.010;20.020;2022-10-30T07:38:38;99279.53;;;11.88;100.00
28008;BME280;15333;50.010;20.020;2022-10-30T07:41:57;99276.97;;;11.86;100.00
28008;BME280;15333;50.010;20.020;2022-10-30T07:45:16;99286.50;;;11.90;100.00
28008;BME280;15333;50.010;20.020;2022-10-30T07:48:36;99303.41;;;12.03;100.00
28008;BME280;15333;50.010;20.020;2022-10-30T07:51:56;99307.69;;;12.06;100.00
28008;BME280;15333;50.010;20.020;2022-10-30T07:54:57;99294.66;;;12.36;100.00
28008;BME280;15333;50.010;20.020;2022-10-30T07:58:16;99285.16;;;12.67;98.69
28008;BME280;15333;50.010;20.020;2022-10-30T08:01:18;99289.88;;;12.87;96.38
28008;BME280;15333;50.010;20.020;2022-10-30T08:04:19;99278.34;;;12.63;97.35
28008;BME280;15333;50.010;20.020;2022-10-30T08:07:21;99278.06;;;12.55;97.96
28008;BME280;15333;50.010;20.020;2022-10-30T08:10:22;99270.28;;;12.63;97.00
28008;BME280;15333;50.010;20.020;2022-10-30T08:13:23;99284.09;;;13.16;95.28
28008;BME280;15333;50.010;20.020;2022-10-30T08:16:24;99287.13;;;13.11;94.37
28008;BME280;15333;50.010;20.020;2022-10-30T08:19:25;99288.19;;;13.09;93.98
28008;BME280;15333;50.010;20.020;2022-10-30T08:22:27;99294.34;;;13.22;94.53
28008;BME280;15333;50.010;20.020;2022-10-30T08:25:33;99287.28;;;13.43;93.03
28008;BME280;15333;50.010;20.020;2022-10-30T08:28:34;99286.34;;;13.55;91.43
28008;BME280;15333;50.010;20.020;2022-10-30T08:31:38;99267.00;;;13.72;90.70
28008;BME280;15333;50.010;20.020;2022-10-30T08:34:57;99257.56;;;13.89;91.00
28008;BME280;15333;50.010;20.020;2022-10-30T08:37:59;99260.22;;;14.00;90.33
28008;BME280;15333;50.010;20.020;2022-10-30T08:41:03;99257.69;;;13.99;88.76
28008;BME280;15333;50.010;20.020;2022-10-30T08:44:07;99259.22;;;14.13;89.07
28008;BME280;15333;50.010;20.020;2022-10-30T08:47:28;99255.38;;;14.26;87.71
28008;BME280;15333;50.010;20.020;2022-10-30T08:50:31;99263.50;;;14.79;85.08
28008;BME280;15333;50.010;20.020;2022-10-30T08:53:32;99262.97;;;14.85;84.97
28008;BME280;15333;50.010;20.020;2022-10-30T08:56:34;99264.81;;;15.05;82.66
28008;BME280;15333;50.010;20.020;2022-10-30T08:59:46;99251.78;;;15.10;83.41
28008;BME280;15333;50.010;20.020;2022-10-30T09:03:07;99249.63;;;15.35;81.55
28008;BME280;15333;50.010;20.020;2022-10-30T09:06:29;99252.66;;;15.62;80.53
28008;BME280;15333;50.010;20.020;2022-10-30T09:09:49;99253.81;;;15.69;79.91
28008;BME280;15333;50.010;20.020;2022-10-30T09:12:58;99253.75;;;15.59;80.32
28008;BME280;15333;50.010;20.020;2022-10-30T09:16:00;99246.50;;;15.90;79.33
28008;BME280;15333;50.010;20.020;2022-10-30T09:19:03;99242.25;;;15.97;78.95
28008;BME280;15333;50.010;20.020;2022-10-30T09:22:04;99239.97;;;16.02;78.72
28008;BME280;15333;50.010;20.020;2022-10-30T09:25:07;99243.97;;;15.98;79.16
28008;BME280;15333;50.010;20.020;2022-10-30T09:28:24;99226.03;;;15.97;79.02
28008;BME280;15333;50.010;20.020;2022-10-30T09:31:51;99237.41;;;15.91;79.12
28008;BME280;15333;50.010;20.020;2022-10-30T09:34:54;99236.09;;;15.76;79.15
28008;BME280;15333;50.010;20.020;2022-10-30T09:37:58;99230.00;;;15.93;79.32
28008;BME280;15333;50.010;20.020;2022-10-30T09:41:22;99223.75;;;15.93;78.86
28008;BME280;15333;50.010;20.020;2022-10-30T09:55:04;99228.34;;;16.31;77.31
28008;BME280;15333;50.010;20.020;2022-10-30T10:01:38;99233.03;;;16.77;74.99
28008;BME280;15333;50.010;20.020;2022-10-30T10:04:45;99237.19;;;16.91;74.35
28008;BME280;15333;50.010;20.020;2022-10-30T10:07:51;99233.88;;;16.97;74.49
28008;BME280;15333;50.010;20.020;2022-10-30T10:11:23;99225.47;;;17.00;73.95
28008;BME280;15333;50.010;20.020;2022-10-30T10:14:28;99218.06;;;17.11;73.21
28008;BME280;15333;50.010;20.020;2022-10-30T10:17:35;99223.13;;;17.24;72.93
28008;BME280;15333;50.010;20.020;2022-10-30T10:20:41;99220.16;;;17.17;72.65
28008;BME280;15333;50.010;20.020;2022-10-30T10:23:47;99227.13;;;17.20;73.57
28008;BME280;15333;50.010;20.020;2022-10-30T10:26:55;99225.66;;;17.35;71.99
28008;BME280;15333;50.010;20.020;2022-10-30T10:30:10;99212.19;;;17.53;72.28
28008;BME280;15333;50.010;20.020;2022-10-30T10:33:20;99216.66;;;17.81;71.17
28008;BME280;15333;50.010;20.020;2022-10-30T10:50:23;99207.19;;;18.30;68.45
28008;BME280;15333;50.010;20.020;2022-10-30T10:53:47;99217.16;;;18.30;68.33
28008;BME280;15333;50.010;20.020;2022-10-30T10:56:51;99215.00;;;18.33;68.46
28008;BME280;15333;50.010;20.020;2022-10-30T10:59:55;99205.78;;;18.26;68.51
28008;BME280;15333;50.010;20.020;2022-10-30T11:03:18;99209.34;;;18.45;67.39
28008;BME280;15333;50.010;20.020;2022-10-30T11:06:26;99215.06;;;18.77;65.79
28008;BME280;15333;50.010;20.020;2022-10-30T11:09:28;99213.84;;;18.54;65.34
28008;BME280;15333;50.010;20.020;2022-10-30T11:12:35;99205.63;;;18.81;64.61
28008;BME280;15333;50.010;20.020;2022-10-30T11:15:39;99192.75;;;18.83;64.77
28008;BME280;15333;50.010;20.020;2022-10-30T11:18:43;99191.06;;;18.82;64.51
28008;BME280;15333;50.010;20.020;2022-10-30T11:21:50;99183.16;;;18.89;64.91
28008;BME280;15333;50.010;20.020;2022-10-30T11:24:52;99195.31;;;18.85;64.28
28008;BME280;15333;50.010;20.020;2022-10-30T11:27:58;99184.22;;;18.78;64.80
28008;BME280;15333;50.010;20.020;2022-10-30T11:32:01;99190.00;;;18.75;65.31
28008;BME280;15333;50.010;20.020;2022-10-30T11:34:40;99195.41;;;18.75;65.52
28008;BME280;15333;50.010;20.020;2022-10-30T11:37:42;99197.44;;;18.73;66.39
28008;BME280;15333;50.010;20.020;2022-10-30T11:40:50;99201.69;;;18.75;65.33
28008;BME280;15333;50.010;20.020;2022-10-30T11:43:52;99202.22;;;18.79;65.86
28008;BME280;15333;50.010;20.020;2022-10-30T11:46:53;99197.22;;;18.92;65.36
28008;BME280;15333;50.010;20.020;2022-10-30T11:49:57;99193.63;;;19.09;65.15
28008;BME280;15333;50.010;20.020;2022-10-30T11:53:09;99203.19;;;19.22;65.08
28008;BME280;15333;50.010;20.020;2022-10-30T11:56:21;99203.38;;;19.28;64.58
28008;BME280;15333;50.010;20.020;2022-10-30T11:59:23;99203.59;;;19.35;64.86
28008;BME280;15333;50.010;20.020;2022-10-30T12:02:27;99195.56;;;19.51;64.61
28008;BME280;15333;50.010;20.020;2022-10-30T12:05:35;99192.28;;;19.73;63.99
28008;BME280;15333;50.010;20.020;2022-10-30T12:08:37;99195.88;;;19.90;63.39
28008;BME280;15333;50.010;20.020;2022-10-30T12:11:39;99185.53;;;19.85;63.18
28008;BME280;15333;50.010;20.020;2022-10-30T12:14:43;99186.88;;;19.89;63.03
28008;BME280;15333;50.010;20.020;2022-10-30T12:18:01;99182.81;;;19.93;63.29
28008;BME280;15333;50.010;20.020;2022-10-30T12:21:03;99174.97;;;19.82;63.72
28008;BME280;15333;50.010;20.020;2022-10-30T12:24:05;99179.97;;;19.53;64.35
28008;BME280;15333;50.010;20.020;2022-10-30T12:27:14;99177.25;;;19.53;64.28
28008;BME280;15333;50.010;20.020;2022-10-30T12:30:18;99177.94;;;19.55;63.86
28008;BME280;15333;50.010;20.020;2022-10-30T12:33:28;99171.66;;;19.54;63.98
28008;BME280;15333;50.010;20.020;2022-10-30T12:36:35;99174.84;;;19.92;63.31
28008;BME280;15333;50.010;20.020;2022-10-30T12:46:32;99165.91;;;20.24;62.40
28008;BME280;15333;50.010;20.020;2022-10-30T12:49:50;99173.28;;;19.89;63.12
28008;BME280;15333;50.010;20.020;2022-10-30T12:53:07;99171.59;;;19.80;63.65
28008;BME280;15333;50.010;20.020;2022-10-30T12:56:18;99167.47;;;19.76;63.66
28008;BME280;15333;50.010;20.020;2022-10-30T13:05:34;99157.00;;;19.89;63.23
28008;BME280;15333;50.010;20.020;2022-10-30T13:12:20;99154.34;;;20.14;63.10
28008;BME280;15333;50.010;20.020;2022-10-30T13:15:35;99153.72;;;20.44;61.68
28008;BME280;15333;50.010;20.020;2022-10-30T13:18:38;99153.22;;;20.57;61.91
28008;BME280;15333;50.010;20.020;2022-10-30T13:21:51;99151.81;;;20.77;61.21
28008;BME280;15333;50.010;20.020;2022-10-30T13:28:32;99145.19;;;20.96;60.27
28008;BME280;15333;50.010;20.020;2022-10-30T13:52:16;99144.56;;;20.45;60.93
28008;BME280;15333;50.010;20.020;2022-10-30T13:55:22;99143.50;;;20.54;61.00
28008;BME280;15333;50.010;20.020;2022-10-30T13:58:50;99140.97;;;20.53;61.28
28008;BME280;15333;50.010;20.020;2022-10-30T14:02:03;99137.38;;;20.60;60.83
28008;BME280;15333;50.010;20.020;2022-10-30T14:05:26;99142.50;;;20.55;61.58
28008;BME280;15333;50.010;20.020;2022-10-30T14:11:54;99134.31;;;20.55;61.45
28008;BME280;15333;50.010;20.020;2022-10-30T14:14:55;99137.91;;;20.48;61.58
28008;BME280;15333;50.010;20.020;2022-10-30T14:18:23;99132.66;;;20.38;62.36
28008;BME280;15333;50.010;20.020;2022-10-30T14:24:43;99130.09;;;20.37;61.94
28008;BME280;15333;50.010;20.020;2022-10-30T14:27:54;99130.22;;;20.27;62.24
28008;BME280;15333;50.010;20.020;2022-10-30T14:31:02;99142.47;;;20.23;62.66
28008;BME280;15333;50.010;20.020;2022-10-30T14:34:25;99145.84;;;20.17;63.04
28008;BME280;15333;50.010;20.020;2022-10-30T14:44:16;99133.88;;;19.77;65.03
28008;BME280;15333;50.010;20.020;2022-10-30T14:54:25;99122.09;;;19.18;67.73
28008;BME280;15333;50.010;20.020;2022-10-30T15:00:49;99124.13;;;18.83;68.71
28008;BME280;15333;50.010;20.020;2022-10-30T15:10:33;99115.19;;;18.47;70.13
28008;BME280;15333;50.010;20.020;2022-10-30T15:13:36;99117.13;;;18.36;70.74
28008;BME280;15333;50.010;20.020;2022-10-30T15:16:38;99115.34;;;18.27;71.87
28008;BME280;15333;50.010;20.020;2022-10-30T15:19:40;99114.28;;;18.20;73.83
28008;BME280;15333;50.010;20.020;2022-10-30T15:22:42;99114.38;;;18.11;74.03
28008;BME280;15333;50.010;20.020;2022-10-30T15:25:45;99114.91;;;18.14;73.19
28008;BME280;15333;50.010;20.020;2022-10-30T15:28:51;99113.81;;;18.07;73.13
28008;BME280;15333;50.010;20.020;2022-10-30T15:32:03;99124.03;;;18.13;72.17
28008;BME280;15333;50.010;20.020;2022-10-30T15:35:13;99129.56;;;18.04;72.75
28008;BME280;15333;50.010;20.020;2022-10-30T15:38:15;99121.41;;;17.86;72.92
28008;BME280;15333;50.010;20.020;2022-10-30T15:41:16;99122.03;;;17.80;73.46
28008;BME280;15333;50.010;20.020;2022-10-30T15:47:27;99127.34;;;17.44;74.82
28008;BME280;15333;50.010;20.020;2022-10-30T15:50:29;99118.84;;;17.39;75.11
28008;BME280;15333;50.010;20.020;2022-10-30T15:53:35;99129.66;;;17.39;75.56
28008;BME280;15333;50.010;20.020;2022-10-30T15:56:43;99126.03;;;17.21;76.12
28008;BME280;15333;50.010;20.020;2022-10-30T15:59:50;99118.72;;;17.04;76.72
28008;BME280;15333;50.010;20.020;2022-10-30T16:03:02;99127.91;;;16.83;77.89
28008;BME280;15333;50.010;20.020;2022-10-30T16:06:15;99120.97;;;16.71;79.04
28008;BME280;15333;50.010;20.020;2022-10-30T16:09:17;99122.81;;;16.52;79.73
28008;BME280;15333;50.010;20.020;2022-10-30T16:12:19;99118.88;;;16.36;80.70
28008;BME280;15333;50.010;20.020;2022-10-30T16:15:32;99125.69;;;16.21;81.13
28008;BME280;15333;50.010;20.020;2022-10-30T16:18:34;99127.13;;;16.06;82.87
28008;BME280;15333;50.010;20.020;2022-10-30T16:21:36;99128.56;;;16.00;82.77
28008;BME280;15333;50.010;20.020;2022-10-30T16:24:38;99130.53;;;15.89;83.00
28008;BME280;15333;50.010;20.020;2022-10-30T16:27:44;99128.84;;;15.88;83.50
28008;BME280;15333;50.010;20.020;2022-10-30T16:30:45;99127.81;;;15.79;84.05
28008;BME280;15333;50.010;20.020;2022-10-30T16:33:47;99129.50;;;15.71;84.91
28008;BME280;15333;50.010;20.020;2022-10-30T16:36:49;99126.53;;;15.64;85.42
28008;BME280;15333;50.010;20.020;2022-10-30T16:39:51;99128.25;;;15.55;86.49
28008;BME280;15333;50.010;20.020;2022-10-30T16:43:00;99125.34;;;15.47;87.41
28008;BME280;15333;50.010;20.020;2022-10-30T16:46:30;99127.28;;;15.36;87.42
28008;BME280;15333;50.010;20.020;2022-10-30T16:49:34;99119.88;;;15.18;88.13
28008;BME280;15333;50.010;20.020;2022-10-30T16:52:37;99127.84;;;14.99;89.30
28008;BME280;15333;50.010;20.020;2022-10-30T16:55:38;99131.94;;;14.84;91.41
28008;BME280;15333;50.010;20.020;2022-10-30T16:58:39;99127.88;;;14.69;91.91
28008;BME280;15333;50.010;20.020;2022-10-30T17:01:39;99125.00;;;14.61;92.53
28008;BME280;15333;50.010;20.020;2022-10-30T17:04:44;99125.53;;;14.55;92.75
28008;BME280;15333;50.010;20.020;2022-10-30T17:08:03;99128.56;;;14.40;93.75
28008;BME280;15333;50.010;20.020;2022-10-30T17:11:06;99125.63;;;14.32;95.37
28008;BME280;15333;50.010;20.020;2022-10-30T17:14:17;99137.94;;;14.14;96.17
28008;BME280;15333;50.010;20.020;2022-10-30T17:20:25;99131.84;;;13.91;97.26
28008;BME280;15333;50.010;20.020;2022-10-30T17:23:27;99136.25;;;13.81;98.72
28008;BME280;15333;50.010;20.020;2022-10-30T17:26:28;99137.88;;;13.72;98.97
28008;BME280;15333;50.010;20.020;2022-10-30T17:32:43;99136.56;;;13.67;100.00
28008;BME280;15333;50.010;20.020;2022-10-30T17:35:44;99137.19;;;13.59;100.00
28008;BME280;15333;50.010;20.020;2022-10-30T17:38:45;99135.47;;;13.58;100.00
28008;BME280;15333;50.010;20.020;2022-10-30T17:41:46;99133.56;;;13.49;100.00
28008;BME280;15333;50.010;20.020;2022-10-30T17:44:47;99142.47;;;13.50;100.00
28008;BME280;15333;50.010;20.020;2022-10-30T17:47:48;99145.03;;;13.51;100.00
28008;BME280;15333;50.010;20.020;2022-10-30T17:50:49;99143.06;;;13.53;100.00
28008;BME280;15333;50.010;20.020;2022-10-30T17:53:49;99140.34;;;13.64;100.00
28008;BME280;15333;50.010;20.020;2022-10-30T17:56:50;99139.13;;;13.68;100.00
28008;BME280;15333;50.010;20.020;2022-10-30T17:59:52;99144.38;;;13.70;100.00
28008;BME280;15333;50.010;20.020;2022-10-30T18:02:53;99137.53;;;13.66;100.00
28008;BME280;15333;50.010;20.020;2022-10-30T18:05:54;99140.34;;;13.64;100.00
28008;BME280;15333;50.010;20.020;2022-10-30T18:08:55;99133.88;;;13.67;100.00
28008;BME280;15333;50.010;20.020;2022-10-30T18:11:56;99136.94;;;13.62;100.00
28008;BME280;15333;50.010;20.020;2022-10-30T18:14:57;99144.38;;;13.59;100.00
28008;BME280;15333;50.010;20.020;2022-10-30T18:17:58;99146.84;;;13.62;100.00
28008;BME280;15333;50.010;20.020;2022-10-30T18:21:00;99139.50;;;13.64;100.00
28008;BME280;15333;50.010;20.020;2022-10-30T18:24:01;99143.53;;;13.69;100.00